EJM68 07FA-KOPF
Flight info
| Callsign | EJM68 |
|---|---|
| Flight time | 0h 15m |
| Altitude | 6000 |
| Route | HST |
| Aircraft | C680/M-SDFGHRWY/SB1 |
Departure
| Time | 2026-04-21 02:41 |
|---|---|
| Airport | Ocean Reef Club Airport (07FA) |
Arrival
| Time | 2026-04-21 02:57 |
|---|---|
| Airport | Miami-Opa Locka Executive Airport (KOPF) |
| Time | Latitude | Longitude | Altitude | Speed | Heading |
|---|---|---|---|---|---|
| 2026-04-21 02:35 | 25.32117 | -80.27806 | 9 ft | 0 kts | 216° |
| 2026-04-21 02:39 | 25.32102 | -80.27825 | 8 ft | 7 kts | 236° |
| 2026-04-21 02:40 | 25.32088 | -80.27850 | 7 ft | 4 kts | 238° |
| 2026-04-21 02:40 | 25.32047 | -80.27899 | 7 ft | 13 kts | 219° |
| 2026-04-21 02:40 | 25.31998 | -80.27945 | 10 ft | 10 kts | 221° |
| 2026-04-21 02:40 | 25.31950 | -80.27974 | 11 ft | 1 kts | 253° |
| 2026-04-21 02:41 | 25.31965 | -80.27976 | 12 ft | 6 kts | 7° |
| 2026-04-21 02:41 | 25.31972 | -80.27972 | 11 ft | 0 kts | 41° |
| 2026-04-21 02:41 | 25.32144 | -80.27823 | 9 ft | 87 kts | 38° |
| 2026-04-21 02:41 | 25.32761 | -80.27292 | 731 ft | 121 kts | 38° |
| 2026-04-21 02:42 | 25.33488 | -80.26627 | 1779 ft | 147 kts | 40° |
| 2026-04-21 02:42 | 25.34403 | -80.25813 | 2590 ft | 181 kts | 38° |
| 2026-04-21 02:42 | 25.35618 | -80.25302 | 3286 ft | 210 kts | 5° |
| 2026-04-21 02:42 | 25.37118 | -80.25867 | 3981 ft | 246 kts | 331° |
| 2026-04-21 02:43 | 25.38433 | -80.27164 | 4715 ft | 263 kts | 319° |
| 2026-04-21 02:43 | 25.39726 | -80.28650 | 5453 ft | 269 kts | 318° |
| 2026-04-21 02:43 | 25.41066 | -80.30106 | 5984 ft | 277 kts | 319° |
| 2026-04-21 02:43 | 25.42501 | -80.31501 | 5992 ft | 273 kts | 322° |
| 2026-04-21 02:44 | 25.43901 | -80.32844 | 5991 ft | 264 kts | 322° |
| 2026-04-21 02:44 | 25.45270 | -80.34206 | 5997 ft | 265 kts | 321° |
| 2026-04-21 02:44 | 25.46621 | -80.35565 | 5995 ft | 261 kts | 320° |
| 2026-04-21 02:44 | 25.47974 | -80.36923 | 5984 ft | 264 kts | 321° |
| 2026-04-21 02:45 | 25.49439 | -80.38159 | 5967 ft | 267 kts | 332° |
| 2026-04-21 02:45 | 25.51095 | -80.39014 | 5966 ft | 259 kts | 339° |
| 2026-04-21 02:45 | 25.52730 | -80.39821 | 5965 ft | 257 kts | 338° |
| 2026-04-21 02:45 | 25.54365 | -80.40656 | 5964 ft | 260 kts | 337° |
| 2026-04-21 02:46 | 25.56005 | -80.41499 | 5970 ft | 260 kts | 338° |
| 2026-04-21 02:46 | 25.57648 | -80.42336 | 5987 ft | 260 kts | 338° |
| 2026-04-21 02:46 | 25.59294 | -80.43167 | 5987 ft | 259 kts | 338° |
| 2026-04-21 02:46 | 25.60938 | -80.44001 | 5986 ft | 260 kts | 337° |
| 2026-04-21 02:47 | 25.62596 | -80.44846 | 5988 ft | 262 kts | 337° |
| 2026-04-21 02:47 | 25.64238 | -80.45684 | 5985 ft | 258 kts | 339° |
| 2026-04-21 02:47 | 25.65910 | -80.46532 | 5820 ft | 271 kts | 339° |
| 2026-04-21 02:47 | 25.67613 | -80.47396 | 5571 ft | 266 kts | 338° |
| 2026-04-21 02:48 | 25.69280 | -80.48250 | 5326 ft | 262 kts | 339° |
| 2026-04-21 02:48 | 25.70927 | -80.49089 | 5089 ft | 260 kts | 339° |
| 2026-04-21 02:48 | 25.72563 | -80.49920 | 4841 ft | 258 kts | 339° |
| 2026-04-21 02:48 | 25.74198 | -80.50753 | 4588 ft | 259 kts | 340° |
| 2026-04-21 02:49 | 25.75822 | -80.51579 | 4342 ft | 260 kts | 339° |
| 2026-04-21 02:49 | 25.77464 | -80.52416 | 4094 ft | 259 kts | 340° |
| 2026-04-21 02:49 | 25.79089 | -80.53249 | 3849 ft | 255 kts | 340° |
| 2026-04-21 02:49 | 25.80691 | -80.54064 | 3604 ft | 252 kts | 340° |
| 2026-04-21 02:50 | 25.82328 | -80.54765 | 3352 ft | 252 kts | 351° |
| 2026-04-21 02:50 | 25.84039 | -80.54956 | 3089 ft | 243 kts | 6° |
| 2026-04-21 02:50 | 25.85662 | -80.54669 | 2835 ft | 231 kts | 20° |
| 2026-04-21 02:50 | 25.87094 | -80.53987 | 2580 ft | 217 kts | 32° |
| 2026-04-21 02:51 | 25.88270 | -80.53019 | 2330 ft | 205 kts | 43° |
| 2026-04-21 02:51 | 25.89184 | -80.51844 | 2075 ft | 197 kts | 53° |
| 2026-04-21 02:51 | 25.89812 | -80.50573 | 1994 ft | 179 kts | 63° |
| 2026-04-21 02:51 | 25.90186 | -80.49288 | 1991 ft | 177 kts | 72° |
| 2026-04-21 02:52 | 25.90346 | -80.47898 | 1991 ft | 187 kts | 82° |
| 2026-04-21 02:52 | 25.90401 | -80.46452 | 1991 ft | 186 kts | 82° |
| 2026-04-21 02:52 | 25.90470 | -80.45016 | 1990 ft | 188 kts | 82° |
| 2026-04-21 02:52 | 25.90546 | -80.43562 | 1990 ft | 188 kts | 82° |
| 2026-04-21 02:53 | 25.90617 | -80.42119 | 1998 ft | 188 kts | 82° |
| 2026-04-21 02:53 | 25.90691 | -80.40658 | 1999 ft | 190 kts | 82° |
| 2026-04-21 02:53 | 25.90763 | -80.39177 | 1804 ft | 194 kts | 82° |
| 2026-04-21 02:53 | 25.90835 | -80.37696 | 1557 ft | 186 kts | 82° |
| 2026-04-21 02:54 | 25.90899 | -80.36326 | 1325 ft | 167 kts | 83° |
| 2026-04-21 02:54 | 25.90947 | -80.35185 | 1119 ft | 129 kts | 81° |
| 2026-04-21 02:54 | 25.90994 | -80.34269 | 959 ft | 113 kts | 79° |
| 2026-04-21 02:54 | 25.91040 | -80.33415 | 826 ft | 108 kts | 81° |
| 2026-04-21 02:55 | 25.91083 | -80.32600 | 692 ft | 104 kts | 83° |
| 2026-04-21 02:55 | 25.91121 | -80.31787 | 556 ft | 107 kts | 81° |
| 2026-04-21 02:55 | 25.91165 | -80.30937 | 416 ft | 115 kts | 81° |
| 2026-04-21 02:55 | 25.91211 | -80.30066 | 265 ft | 109 kts | 82° |
| 2026-04-21 02:56 | 25.91247 | -80.29265 | 106 ft | 101 kts | 82° |
| 2026-04-21 02:56 | 25.91314 | -80.27914 | 10 ft | 66 kts | 87° |
| 2026-04-21 02:56 | 25.91334 | -80.27460 | 17 ft | 52 kts | 88° |
| 2026-04-21 02:57 | 25.91348 | -80.27123 | 19 ft | 25 kts | 86° |
| 2026-04-21 02:57 | 25.91325 | -80.27048 | 20 ft | 13 kts | 160° |
| 2026-04-21 02:57 | 25.91212 | -80.27029 | 17 ft | 18 kts | 156° |
| 2026-04-21 02:57 | 25.91088 | -80.27022 | 16 ft | 15 kts | 178° |
| 2026-04-21 02:58 | 25.91056 | -80.26959 | 16 ft | 11 kts | 90° |
| 2026-04-21 02:58 | 25.91066 | -80.26869 | 16 ft | 12 kts | 67° |
| 2026-04-21 02:58 | 25.91098 | -80.26843 | 16 ft | 1 kts | 351° |
| 2026-04-21 02:58 | 25.91102 | -80.26871 | 17 ft | 2 kts | 225° |
| 2026-04-21 02:59 | 25.91094 | -80.26872 | 16 ft | 0 kts | 167° |